sensor_id;sensor_type;location;lat;lon;timestamp;temperature;humidity
13835;DHT22;6988;52.614;13.500;2023-02-22T00:03:35;7.10;99.90
13835;DHT22;6988;52.614;13.500;2023-02-22T00:08:31;7.10;99.90
13835;DHT22;6988;52.614;13.500;2023-02-22T00:13:25;7.10;99.90
13835;DHT22;6988;52.614;13.500;2023-02-22T00:18:18;7.00;99.90
13835;DHT22;6988;52.614;13.500;2023-02-22T00:23:16;7.00;99.90
13835;DHT22;6988;52.614;13.500;2023-02-22T00:28:11;6.90;99.90
13835;DHT22;6988;52.614;13.500;2023-02-22T00:33:04;6.80;99.90
13835;DHT22;6988;52.614;13.500;2023-02-22T00:37:59;6.80;99.90
13835;DHT22;6988;52.614;13.500;2023-02-22T00:42:53;6.80;99.90
13835;DHT22;6988;52.614;13.500;2023-02-22T00:47:45;6.80;99.90
13835;DHT22;6988;52.614;13.500;2023-02-22T01:04:52;6.70;99.90
13835;DHT22;6988;52.614;13.500;2023-02-22T01:09:43;6.70;99.90
13835;DHT22;6988;52.614;13.500;2023-02-22T01:14:35;6.70;99.90
13835;DHT22;6988;52.614;13.500;2023-02-22T01:19:27;6.70;99.90
13835;DHT22;6988;52.614;13.500;2023-02-22T01:24:20;6.60;99.90
13835;DHT22;6988;52.614;13.500;2023-02-22T01:29:13;6.60;99.90
13835;DHT22;6988;52.614;13.500;2023-02-22T01:34:05;6.50;99.90
13835;DHT22;6988;52.614;13.500;2023-02-22T01:38:59;6.50;99.90
13835;DHT22;6988;52.614;13.500;2023-02-22T01:43:53;6.40;99.90
13835;DHT22;6988;52.614;13.500;2023-02-22T01:48:48;6.40;99.90
13835;DHT22;6988;52.614;13.500;2023-02-22T01:53:46;6.40;99.90
13835;DHT22;6988;52.614;13.500;2023-02-22T01:58:45;6.30;99.90
13835;DHT22;6988;52.614;13.500;2023-02-22T02:03:43;6.20;99.90
13835;DHT22;6988;52.614;13.500;2023-02-22T02:08:46;6.20;99.90
13835;DHT22;6988;52.614;13.500;2023-02-22T02:13:45;6.20;99.90
13835;DHT22;6988;52.614;13.500;2023-02-22T02:18:40;6.10;99.90
13835;DHT22;6988;52.614;13.500;2023-02-22T02:24:11;6.10;99.90
13835;DHT22;6988;52.614;13.500;2023-02-22T02:35:37;6.10;99.90
13835;DHT22;6988;52.614;13.500;2023-02-22T02:40:40;6.10;99.90
13835;DHT22;6988;52.614;13.500;2023-02-22T02:45:44;6.00;99.90
13835;DHT22;6988;52.614;13.500;2023-02-22T02:50:43;6.00;99.90
13835;DHT22;6988;52.614;13.500;2023-02-22T02:55:38;6.00;99.90
13835;DHT22;6988;52.614;13.500;2023-02-22T03:00:33;6.00;99.90
13835;DHT22;6988;52.614;13.500;2023-02-22T03:05:42;6.00;99.90
13835;DHT22;6988;52.614;13.500;2023-02-22T03:10:56;5.90;99.90
13835;DHT22;6988;52.614;13.500;2023-02-22T03:16:02;6.00;99.90
13835;DHT22;6988;52.614;13.500;2023-02-22T03:21:10;6.00;99.90
13835;DHT22;6988;52.614;13.500;2023-02-22T03:26:13;6.00;99.90
13835;DHT22;6988;52.614;13.500;2023-02-22T03:31:16;5.90;99.90
13835;DHT22;6988;52.614;13.500;2023-02-22T03:36:21;5.80;99.90
13835;DHT22;6988;52.614;13.500;2023-02-22T03:41:20;5.70;99.90
13835;DHT22;6988;52.614;13.500;2023-02-22T03:46:16;5.70;99.90
13835;DHT22;6988;52.614;13.500;2023-02-22T03:51:11;5.70;99.90
13835;DHT22;6988;52.614;13.500;2023-02-22T03:56:11;5.70;99.90
13835;DHT22;6988;52.614;13.500;2023-02-22T04:01:09;5.60;99.90
13835;DHT22;6988;52.614;13.500;2023-02-22T04:06:01;5.60;99.90
13835;DHT22;6988;52.614;13.500;2023-02-22T04:10:54;5.60;99.90
13835;DHT22;6988;52.614;13.500;2023-02-22T04:15:53;5.60;99.90
13835;DHT22;6988;52.614;13.500;2023-02-22T04:20:46;5.60;99.90
13835;DHT22;6988;52.614;13.500;2023-02-22T04:25:56;5.60;99.90
13835;DHT22;6988;52.614;13.500;2023-02-22T04:30:48;5.60;99.90
13835;DHT22;6988;52.614;13.500;2023-02-22T04:35:43;5.60;99.90
13835;DHT22;6988;52.614;13.500;2023-02-22T04:40:35;5.50;99.90
13835;DHT22;6988;52.614;13.500;2023-02-22T04:45:27;5.50;99.90
13835;DHT22;6988;52.614;13.500;2023-02-22T04:50:24;5.50;99.90
13835;DHT22;6988;52.614;13.500;2023-02-22T04:55:16;5.40;99.90
13835;DHT22;6988;52.614;13.500;2023-02-22T05:00:09;5.40;99.90
13835;DHT22;6988;52.614;13.500;2023-02-22T05:05:02;5.40;99.90
13835;DHT22;6988;52.614;13.500;2023-02-22T05:09:55;5.40;99.90
13835;DHT22;6988;52.614;13.500;2023-02-22T05:14:47;5.40;99.90
13835;DHT22;6988;52.614;13.500;2023-02-22T05:19:39;5.40;99.90
13835;DHT22;6988;52.614;13.500;2023-02-22T05:24:31;5.30;99.90
13835;DHT22;6988;52.614;13.500;2023-02-22T05:29:25;5.30;99.90
13835;DHT22;6988;52.614;13.500;2023-02-22T05:34:17;5.40;99.90
13835;DHT22;6988;52.614;13.500;2023-02-22T05:39:09;5.40;99.90
13835;DHT22;6988;52.614;13.500;2023-02-22T05:44:01;5.30;99.90
13835;DHT22;6988;52.614;13.500;2023-02-22T05:48:54;5.20;99.90
13835;DHT22;6988;52.614;13.500;2023-02-22T05:53:46;5.20;99.90
13835;DHT22;6988;52.614;13.500;2023-02-22T05:58:41;5.10;99.90
13835;DHT22;6988;52.614;13.500;2023-02-22T06:03:33;5.00;99.90
13835;DHT22;6988;52.614;13.500;2023-02-22T06:08:26;5.00;99.90
13835;DHT22;6988;52.614;13.500;2023-02-22T06:13:18;5.00;99.90
13835;DHT22;6988;52.614;13.500;2023-02-22T06:24:43;5.20;99.90
13835;DHT22;6988;52.614;13.500;2023-02-22T06:29:36;5.20;99.90
13835;DHT22;6988;52.614;13.500;2023-02-22T06:34:29;5.20;99.90
13835;DHT22;6988;52.614;13.500;2023-02-22T06:39:21;5.20;99.90
13835;DHT22;6988;52.614;13.500;2023-02-22T06:44:16;5.20;99.90
13835;DHT22;6988;52.614;13.500;2023-02-22T06:49:08;5.20;99.90
13835;DHT22;6988;52.614;13.500;2023-02-22T06:53:59;5.20;99.90
13835;DHT22;6988;52.614;13.500;2023-02-22T06:58:51;5.30;99.90
13835;DHT22;6988;52.614;13.500;2023-02-22T07:03:45;5.40;99.90
13835;DHT22;6988;52.614;13.500;2023-02-22T07:08:36;5.30;99.90
13835;DHT22;6988;52.614;13.500;2023-02-22T07:13:28;5.40;99.90
13835;DHT22;6988;52.614;13.500;2023-02-22T07:18:20;5.60;99.90
13835;DHT22;6988;52.614;13.500;2023-02-22T07:23:16;5.60;99.90
13835;DHT22;6988;52.614;13.500;2023-02-22T07:28:09;5.70;99.90
13835;DHT22;6988;52.614;13.500;2023-02-22T07:33:03;5.90;99.90
13835;DHT22;6988;52.614;13.500;2023-02-22T07:37:57;6.20;99.90
13835;DHT22;6988;52.614;13.500;2023-02-22T07:42:52;6.40;99.90
13835;DHT22;6988;52.614;13.500;2023-02-22T07:47:46;6.40;99.90
13835;DHT22;6988;52.614;13.500;2023-02-22T07:52:37;6.30;99.90
13835;DHT22;6988;52.614;13.500;2023-02-22T07:57:29;6.40;99.90
13835;DHT22;6988;52.614;13.500;2023-02-22T08:02:24;6.40;99.90
13835;DHT22;6988;52.614;13.500;2023-02-22T08:07:16;6.50;99.90
13835;DHT22;6988;52.614;13.500;2023-02-22T08:12:08;6.80;99.90
13835;DHT22;6988;52.614;13.500;2023-02-22T08:16:59;7.00;99.90
13835;DHT22;6988;52.614;13.500;2023-02-22T08:21:52;7.00;99.90
13835;DHT22;6988;52.614;13.500;2023-02-22T08:26:44;7.00;99.90
13835;DHT22;6988;52.614;13.500;2023-02-22T08:31:36;6.90;99.90
13835;DHT22;6988;52.614;13.500;2023-02-22T08:36:28;6.90;99.90
13835;DHT22;6988;52.614;13.500;2023-02-22T08:41:23;7.00;99.90
13835;DHT22;6988;52.614;13.500;2023-02-22T08:46:15;7.00;99.90
13835;DHT22;6988;52.614;13.500;2023-02-22T08:51:07;7.10;99.90
13835;DHT22;6988;52.614;13.500;2023-02-22T08:55:59;7.10;99.90
13835;DHT22;6988;52.614;13.500;2023-02-22T09:00:52;7.20;99.90
13835;DHT22;6988;52.614;13.500;2023-02-22T09:05:44;7.20;99.90
13835;DHT22;6988;52.614;13.500;2023-02-22T09:10:36;7.50;99.90
13835;DHT22;6988;52.614;13.500;2023-02-22T09:15:29;7.50;99.90
13835;DHT22;6988;52.614;13.500;2023-02-22T09:20:23;7.40;99.90
13835;DHT22;6988;52.614;13.500;2023-02-22T09:25:16;7.50;99.90
13835;DHT22;6988;52.614;13.500;2023-02-22T09:30:15;7.80;99.90
13835;DHT22;6988;52.614;13.500;2023-02-22T09:35:09;7.90;99.90
13835;DHT22;6988;52.614;13.500;2023-02-22T09:40:04;7.90;99.90
13835;DHT22;6988;52.614;13.500;2023-02-22T09:45:02;8.00;99.90
13835;DHT22;6988;52.614;13.500;2023-02-22T09:50:05;8.10;99.90
13835;DHT22;6988;52.614;13.500;2023-02-22T09:55:15;8.20;99.90
13835;DHT22;6988;52.614;13.500;2023-02-22T10:00:19;8.30;99.90
13835;DHT22;6988;52.614;13.500;2023-02-22T10:05:17;8.40;99.90
13835;DHT22;6988;52.614;13.500;2023-02-22T10:10:17;8.50;99.90
13835;DHT22;6988;52.614;13.500;2023-02-22T10:15:40;8.50;99.90
13835;DHT22;6988;52.614;13.500;2023-02-22T10:20:44;8.50;99.90
13835;DHT22;6988;52.614;13.500;2023-02-22T10:25:49;8.60;99.90
13835;DHT22;6988;52.614;13.500;2023-02-22T10:30:49;8.80;99.90
13835;DHT22;6988;52.614;13.500;2023-02-22T10:35:44;8.80;99.90
13835;DHT22;6988;52.614;13.500;2023-02-22T10:40:37;9.00;99.90
13835;DHT22;6988;52.614;13.500;2023-02-22T10:45:32;9.00;99.90
13835;DHT22;6988;52.614;13.500;2023-02-22T10:50:28;9.10;99.90
13835;DHT22;6988;52.614;13.500;2023-02-22T10:55:21;9.20;99.90
13835;DHT22;6988;52.614;13.500;2023-02-22T11:00:16;9.30;99.90
13835;DHT22;6988;52.614;13.500;2023-02-22T11:05:26;9.40;99.90
13835;DHT22;6988;52.614;13.500;2023-02-22T11:10:30;9.40;99.90
13835;DHT22;6988;52.614;13.500;2023-02-22T11:15:28;9.50;99.90
13835;DHT22;6988;52.614;13.500;2023-02-22T11:20:22;9.50;99.90
13835;DHT22;6988;52.614;13.500;2023-02-22T11:25:21;9.60;99.90
13835;DHT22;6988;52.614;13.500;2023-02-22T11:30:26;9.70;99.90
13835;DHT22;6988;52.614;13.500;2023-02-22T11:35:32;9.70;99.90
13835;DHT22;6988;52.614;13.500;2023-02-22T11:40:28;9.90;99.90
13835;DHT22;6988;52.614;13.500;2023-02-22T11:45:21;9.70;99.90
13835;DHT22;6988;52.614;13.500;2023-02-22T11:50:20;9.90;99.90
13835;DHT22;6988;52.614;13.500;2023-02-22T11:55:23;9.90;99.90
13835;DHT22;6988;52.614;13.500;2023-02-22T12:00:29;9.90;99.90
13835;DHT22;6988;52.614;13.500;2023-02-22T12:05:39;10.00;99.90
13835;DHT22;6988;52.614;13.500;2023-02-22T12:11:00;10.00;99.90
13835;DHT22;6988;52.614;13.500;2023-02-22T12:16:07;10.10;99.90
13835;DHT22;6988;52.614;13.500;2023-02-22T12:21:13;10.10;99.90
13835;DHT22;6988;52.614;13.500;2023-02-22T12:26:13;10.00;99.90
13835;DHT22;6988;52.614;13.500;2023-02-22T12:31:14;10.10;99.90
13835;DHT22;6988;52.614;13.500;2023-02-22T12:36:13;10.20;99.90
13835;DHT22;6988;52.614;13.500;2023-02-22T12:41:17;10.20;99.90
13835;DHT22;6988;52.614;13.500;2023-02-22T12:46:20;10.10;99.90
13835;DHT22;6988;52.614;13.500;2023-02-22T12:51:26;10.10;99.90
13835;DHT22;6988;52.614;13.500;2023-02-22T12:56:27;10.10;99.90
13835;DHT22;6988;52.614;13.500;2023-02-22T13:01:27;10.00;99.90
13835;DHT22;6988;52.614;13.500;2023-02-22T13:06:42;9.90;99.90
13835;DHT22;6988;52.614;13.500;2023-02-22T13:11:51;10.00;99.90
13835;DHT22;6988;52.614;13.500;2023-02-22T13:16:53;10.10;99.90
13835;DHT22;6988;52.614;13.500;2023-02-22T13:21:56;10.10;99.90
13835;DHT22;6988;52.614;13.500;2023-02-22T13:26:59;10.10;99.90
13835;DHT22;6988;52.614;13.500;2023-02-22T13:32:09;10.20;99.90
13835;DHT22;6988;52.614;13.500;2023-02-22T13:37:22;10.10;99.90
13835;DHT22;6988;52.614;13.500;2023-02-22T13:42:54;9.90;99.90
13835;DHT22;6988;52.614;13.500;2023-02-22T13:48:20;10.00;99.90
13835;DHT22;6988;52.614;13.500;2023-02-22T13:53:23;10.00;99.90
13835;DHT22;6988;52.614;13.500;2023-02-22T13:58:19;9.90;99.90
13835;DHT22;6988;52.614;13.500;2023-02-22T14:03:31;10.00;99.90
13835;DHT22;6988;52.614;13.500;2023-02-22T14:08:40;10.10;99.90
13835;DHT22;6988;52.614;13.500;2023-02-22T14:14:08;10.10;99.90
13835;DHT22;6988;52.614;13.500;2023-02-22T14:19:03;10.20;99.90
13835;DHT22;6988;52.614;13.500;2023-02-22T14:24:10;10.20;99.90
13835;DHT22;6988;52.614;13.500;2023-02-22T14:29:16;10.00;99.90
13835;DHT22;6988;52.614;13.500;2023-02-22T14:34:10;9.90;99.90
13835;DHT22;6988;52.614;13.500;2023-02-22T14:39:14;9.90;99.90
13835;DHT22;6988;52.614;13.500;2023-02-22T14:44:10;9.80;99.90
13835;DHT22;6988;52.614;13.500;2023-02-22T14:49:06;9.80;99.90
13835;DHT22;6988;52.614;13.500;2023-02-22T14:54:11;9.80;99.90
13835;DHT22;6988;52.614;13.500;2023-02-22T14:59:17;9.80;99.90
13835;DHT22;6988;52.614;13.500;2023-02-22T15:04:21;9.90;99.90
13835;DHT22;6988;52.614;13.500;2023-02-22T15:09:17;9.80;99.90
13835;DHT22;6988;52.614;13.500;2023-02-22T15:14:16;9.70;99.90
13835;DHT22;6988;52.614;13.500;2023-02-22T15:19:10;9.80;99.90
13835;DHT22;6988;52.614;13.500;2023-02-22T15:24:05;9.60;99.90
13835;DHT22;6988;52.614;13.500;2023-02-22T15:28:58;9.60;99.90
13835;DHT22;6988;52.614;13.500;2023-02-22T15:33:51;9.50;99.90
13835;DHT22;6988;52.614;13.500;2023-02-22T15:38:48;9.40;99.90
13835;DHT22;6988;52.614;13.500;2023-02-22T15:43:43;9.30;99.90
13835;DHT22;6988;52.614;13.500;2023-02-22T15:48:34;9.30;99.90
13835;DHT22;6988;52.614;13.500;2023-02-22T15:53:35;9.30;99.90
13835;DHT22;6988;52.614;13.500;2023-02-22T15:58:30;9.20;99.90
13835;DHT22;6988;52.614;13.500;2023-02-22T16:03:24;9.20;99.90
13835;DHT22;6988;52.614;13.500;2023-02-22T16:08:20;9.00;99.90
13835;DHT22;6988;52.614;13.500;2023-02-22T16:13:19;9.00;99.90
13835;DHT22;6988;52.614;13.500;2023-02-22T16:18:16;8.90;99.90
13835;DHT22;6988;52.614;13.500;2023-02-22T16:23:22;8.80;99.90
13835;DHT22;6988;52.614;13.500;2023-02-22T16:28:26;8.70;99.90
13835;DHT22;6988;52.614;13.500;2023-02-22T16:33:24;8.70;99.90
13835;DHT22;6988;52.614;13.500;2023-02-22T16:38:19;8.70;99.90
13835;DHT22;6988;52.614;13.500;2023-02-22T16:43:13;8.70;99.90
13835;DHT22;6988;52.614;13.500;2023-02-22T16:48:12;8.60;99.90
13835;DHT22;6988;52.614;13.500;2023-02-22T16:53:09;8.60;99.90
13835;DHT22;6988;52.614;13.500;2023-02-22T16:58:01;8.50;99.90
13835;DHT22;6988;52.614;13.500;2023-02-22T17:02:54;8.50;99.90
13835;DHT22;6988;52.614;13.500;2023-02-22T17:07:46;8.40;99.90
13835;DHT22;6988;52.614;13.500;2023-02-22T17:12:39;8.30;99.90
13835;DHT22;6988;52.614;13.500;2023-02-22T17:17:33;8.20;99.90
13835;DHT22;6988;52.614;13.500;2023-02-22T17:22:25;8.20;99.90
13835;DHT22;6988;52.614;13.500;2023-02-22T17:27:16;8.10;99.90
13835;DHT22;6988;52.614;13.500;2023-02-22T17:32:10;7.90;99.90
13835;DHT22;6988;52.614;13.500;2023-02-22T17:37:02;8.00;99.90
13835;DHT22;6988;52.614;13.500;2023-02-22T17:41:55;7.70;99.90
13835;DHT22;6988;52.614;13.500;2023-02-22T17:46:47;7.60;99.90
13835;DHT22;6988;52.614;13.500;2023-02-22T17:51:40;7.40;99.90
13835;DHT22;6988;52.614;13.500;2023-02-22T17:56:32;7.50;99.90
13835;DHT22;6988;52.614;13.500;2023-02-22T18:01:25;7.20;99.90
13835;DHT22;6988;52.614;13.500;2023-02-22T18:06:20;7.00;99.90
13835;DHT22;6988;52.614;13.500;2023-02-22T18:11:14;7.00;99.90
13835;DHT22;6988;52.614;13.500;2023-02-22T18:16:06;6.90;99.90
13835;DHT22;6988;52.614;13.500;2023-02-22T18:20:59;6.80;99.90
13835;DHT22;6988;52.614;13.500;2023-02-22T18:25:51;6.80;99.90
13835;DHT22;6988;52.614;13.500;2023-02-22T18:30:44;6.70;99.90
13835;DHT22;6988;52.614;13.500;2023-02-22T18:35:37;6.40;99.90
13835;DHT22;6988;52.614;13.500;2023-02-22T18:40:29;6.30;99.90
13835;DHT22;6988;52.614;13.500;2023-02-22T18:45:21;6.20;99.90
13835;DHT22;6988;52.614;13.500;2023-02-22T18:50:15;6.10;99.90
13835;DHT22;6988;52.614;13.500;2023-02-22T18:55:07;6.10;99.90
13835;DHT22;6988;52.614;13.500;2023-02-22T18:59:59;6.10;99.90
13835;DHT22;6988;52.614;13.500;2023-02-22T19:04:50;6.10;99.90
13835;DHT22;6988;52.614;13.500;2023-02-22T19:09:44;5.90;99.90
13835;DHT22;6988;52.614;13.500;2023-02-22T19:14:40;5.90;99.90
13835;DHT22;6988;52.614;13.500;2023-02-22T19:19:32;5.60;99.90
13835;DHT22;6988;52.614;13.500;2023-02-22T19:24:25;5.60;99.90
13835;DHT22;6988;52.614;13.500;2023-02-22T19:29:18;5.60;99.90
13835;DHT22;6988;52.614;13.500;2023-02-22T19:34:12;5.70;99.90
13835;DHT22;6988;52.614;13.500;2023-02-22T19:39:04;5.50;99.90
13835;DHT22;6988;52.614;13.500;2023-02-22T19:44:00;5.40;99.90
13835;DHT22;6988;52.614;13.500;2023-02-22T19:48:54;5.50;99.90
13835;DHT22;6988;52.614;13.500;2023-02-22T19:53:46;5.60;99.90
13835;DHT22;6988;52.614;13.500;2023-02-22T19:58:41;5.40;99.90
13835;DHT22;6988;52.614;13.500;2023-02-22T20:03:34;5.30;99.90
13835;DHT22;6988;52.614;13.500;2023-02-22T20:08:29;5.30;99.90
13835;DHT22;6988;52.614;13.500;2023-02-22T20:13:20;5.40;99.90
13835;DHT22;6988;52.614;13.500;2023-02-22T20:18:12;5.40;99.90
13835;DHT22;6988;52.614;13.500;2023-02-22T20:23:04;5.50;99.90
13835;DHT22;6988;52.614;13.500;2023-02-22T20:27:57;5.70;99.90
13835;DHT22;6988;52.614;13.500;2023-02-22T20:32:50;5.60;99.90
13835;DHT22;6988;52.614;13.500;2023-02-22T20:37:42;5.60;99.90
13835;DHT22;6988;52.614;13.500;2023-02-22T20:42:34;5.60;99.90
13835;DHT22;6988;52.614;13.500;2023-02-22T20:47:27;5.50;99.90
13835;DHT22;6988;52.614;13.500;2023-02-22T20:52:18;5.40;99.90
13835;DHT22;6988;52.614;13.500;2023-02-22T20:57:10;5.40;99.90
13835;DHT22;6988;52.614;13.500;2023-02-22T21:02:02;5.50;99.90
13835;DHT22;6988;52.614;13.500;2023-02-22T21:06:55;5.30;99.90
13835;DHT22;6988;52.614;13.500;2023-02-22T21:11:47;5.30;99.90
13835;DHT22;6988;52.614;13.500;2023-02-22T21:16:39;5.30;99.90
13835;DHT22;6988;52.614;13.500;2023-02-22T21:21:31;5.20;99.90
13835;DHT22;6988;52.614;13.500;2023-02-22T21:26:26;5.10;99.90
13835;DHT22;6988;52.614;13.500;2023-02-22T21:31:20;5.40;99.90
13835;DHT22;6988;52.614;13.500;2023-02-22T21:36:14;5.30;99.90
13835;DHT22;6988;52.614;13.500;2023-02-22T21:41:06;5.30;99.90
13835;DHT22;6988;52.614;13.500;2023-02-22T21:46:02;5.20;99.90
13835;DHT22;6988;52.614;13.500;2023-02-22T21:50:54;5.20;99.90
13835;DHT22;6988;52.614;13.500;2023-02-22T21:55:45;5.30;99.90
13835;DHT22;6988;52.614;13.500;2023-02-22T22:00:37;5.10;99.90
13835;DHT22;6988;52.614;13.500;2023-02-22T22:05:33;5.20;99.90
13835;DHT22;6988;52.614;13.500;2023-02-22T22:10:29;5.20;99.90
13835;DHT22;6988;52.614;13.500;2023-02-22T22:15:22;5.20;99.90
13835;DHT22;6988;52.614;13.500;2023-02-22T22:20:15;5.10;99.90
13835;DHT22;6988;52.614;13.500;2023-02-22T22:25:08;5.00;99.90
13835;DHT22;6988;52.614;13.500;2023-02-22T22:30:01;5.00;99.90
13835;DHT22;6988;52.614;13.500;2023-02-22T22:34:54;4.90;99.90
13835;DHT22;6988;52.614;13.500;2023-02-22T22:39:48;4.90;99.90
13835;DHT22;6988;52.614;13.500;2023-02-22T22:44:41;4.90;99.90
13835;DHT22;6988;52.614;13.500;2023-02-22T23:04:49;4.50;99.90
13835;DHT22;6988;52.614;13.500;2023-02-22T23:09:42;4.50;99.90
13835;DHT22;6988;52.614;13.500;2023-02-22T23:14:36;4.60;99.90
13835;DHT22;6988;52.614;13.500;2023-02-22T23:19:35;4.60;99.90
13835;DHT22;6988;52.614;13.500;2023-02-22T23:24:28;4.60;99.90
13835;DHT22;6988;52.614;13.500;2023-02-22T23:29:21;4.60;99.90
13835;DHT22;6988;52.614;13.500;2023-02-22T23:34:14;4.60;99.90
13835;DHT22;6988;52.614;13.500;2023-02-22T23:39:06;4.60;99.90
13835;DHT22;6988;52.614;13.500;2023-02-22T23:43:59;4.60;99.90
13835;DHT22;6988;52.614;13.500;2023-02-22T23:48:52;4.60;99.90
13835;DHT22;6988;52.614;13.500;2023-02-22T23:53:52;4.50;99.90
13835;DHT22;6988;52.614;13.500;2023-02-22T23:58:46;4.60;99.90
